createdAt,value
2023-03-29T00:00:52.609Z,100942.20
2023-03-29T00:03:25.681Z,100934.60
2023-03-29T00:06:03.525Z,100932.20
2023-03-29T00:08:38.222Z,100928.40
2023-03-29T00:11:12.681Z,100922.80
2023-03-29T00:13:46.053Z,100920.00
2023-03-29T00:16:19.399Z,100918.20
2023-03-29T00:18:52.587Z,100916.80
2023-03-29T00:21:25.713Z,100923.00
2023-03-29T00:23:59.028Z,100921.00
2023-03-29T00:26:32.177Z,100919.00
2023-03-29T00:29:05.353Z,100916.20
2023-03-29T00:31:38.489Z,100913.80
2023-03-29T00:34:11.857Z,100914.20
2023-03-29T00:36:44.987Z,100915.20
2023-03-29T00:39:18.389Z,100914.60
2023-03-29T00:41:52.366Z,100912.00
2023-03-29T00:45:04.597Z,100917.20
2023-03-29T00:47:43.990Z,100910.40
2023-03-29T00:50:22.603Z,100919.40
2023-03-29T00:53:03.871Z,100918.00
2023-03-29T00:55:42.539Z,100914.20
2023-03-29T00:58:19.318Z,100911.00
2023-03-29T01:01:02.412Z,100911.60
2023-03-29T01:03:41.581Z,100909.60
2023-03-29T01:06:17.418Z,100907.20
2023-03-29T01:08:55.529Z,100903.60
2023-03-29T01:11:33.803Z,100906.00
2023-03-29T01:14:11.624Z,100898.80
2023-03-29T01:16:46.160Z,100900.40
2023-03-29T01:19:23.615Z,100895.80
2023-03-29T01:22:04.984Z,100893.40
2023-03-29T01:25:00.006Z,100892.00
2023-03-29T01:27:54.989Z,100893.20
2023-03-29T01:30:33.583Z,100890.60
2023-03-29T01:33:12.102Z,100881.80
2023-03-29T01:35:50.483Z,100879.80
2023-03-29T01:38:28.821Z,100879.80
2023-03-29T01:41:04.182Z,100873.40
2023-03-29T01:43:46.232Z,100875.60
2023-03-29T01:46:29.629Z,100877.60
2023-03-29T01:49:11.316Z,100874.60
2023-03-29T01:51:49.508Z,100871.60
2023-03-29T01:54:27.082Z,100867.80
2023-03-29T01:57:05.990Z,100869.60
2023-03-29T01:59:44.043Z,100870.60
2023-03-29T02:02:20.672Z,100871.60
2023-03-29T02:04:57.629Z,100870.80
2023-03-29T02:07:37.485Z,100873.60
2023-03-29T02:10:13.608Z,100870.60
2023-03-29T02:12:48.181Z,100866.60
2023-03-29T02:15:23.684Z,100867.00
2023-03-29T02:17:57.229Z,100869.40
2023-03-29T02:20:33.938Z,100864.80
2023-03-29T02:23:15.213Z,100864.00
2023-03-29T02:25:50.606Z,100862.40
2023-03-29T02:28:25.805Z,100866.60
2023-03-29T02:31:04.977Z,100861.00
2023-03-29T02:33:48.880Z,100861.80
2023-03-29T02:36:25.435Z,100857.20
2023-03-29T02:39:00.829Z,100861.00
2023-03-29T02:41:35.238Z,100856.00
2023-03-29T02:44:11.487Z,100855.80
2023-03-29T02:46:45.834Z,100854.20
2023-03-29T02:49:18.928Z,100859.00
2023-03-29T02:51:52.867Z,100858.60
2023-03-29T02:54:30.075Z,100853.00
2023-03-29T02:57:06.702Z,100846.20
2023-03-29T02:59:41.042Z,100842.20
2023-03-29T03:02:15.321Z,100834.20
2023-03-29T03:04:48.669Z,100833.20
2023-03-29T03:07:21.673Z,100834.20
2023-03-29T03:09:54.713Z,100830.00
2023-03-29T03:12:27.917Z,100828.60
2023-03-29T03:15:01.032Z,100827.40
2023-03-29T03:17:40.167Z,100824.80
2023-03-29T03:20:16.462Z,100820.40
2023-03-29T03:22:50.690Z,100817.80
2023-03-29T03:25:25.614Z,100816.20
2023-03-29T03:27:58.835Z,100802.80
2023-03-29T03:30:32.119Z,100804.00
2023-03-29T03:33:23.426Z,100801.60
2023-03-29T03:36:16.525Z,100802.40
2023-03-29T03:38:49.642Z,100799.60
2023-03-29T03:41:22.861Z,100797.80
2023-03-29T03:43:56.054Z,100795.60
2023-03-29T03:46:29.835Z,100795.20
2023-03-29T03:49:04.782Z,100790.20
2023-03-29T03:51:42.097Z,100789.20
2023-03-29T03:54:15.434Z,100785.60
2023-03-29T03:57:11.711Z,100785.20
2023-03-29T03:59:50.702Z,100780.80
2023-03-29T04:02:31.808Z,100781.80
2023-03-29T04:05:05.151Z,100778.60
2023-03-29T04:07:42.870Z,100785.20
2023-03-29T04:10:57.735Z,100782.80
2023-03-29T04:13:37.305Z,100782.80
2023-03-29T04:16:31.065Z,100778.40
2023-03-29T04:19:09.714Z,100778.20
2023-03-29T04:21:43.169Z,100775.00
2023-03-29T04:24:17.340Z,100777.00
2023-03-29T04:26:55.285Z,100769.40
2023-03-29T04:29:30.390Z,100770.60
2023-03-29T04:32:13.107Z,100763.40
2023-03-29T04:34:53.039Z,100759.00
2023-03-29T04:37:26.284Z,100763.80
2023-03-29T04:40:00.592Z,100771.40
2023-03-29T04:42:35.104Z,100766.20
2023-03-29T04:45:10.058Z,100761.60
2023-03-29T04:48:00.966Z,100760.60
2023-03-29T04:50:34.946Z,100759.20
2023-03-29T04:53:08.979Z,100761.00
2023-03-29T04:55:42.396Z,100759.60
2023-03-29T04:58:22.554Z,100763.20
2023-03-29T05:00:58.997Z,100764.40
2023-03-29T05:03:36.941Z,100761.60
2023-03-29T05:06:18.096Z,100765.80
2023-03-29T05:08:51.408Z,100772.00
2023-03-29T05:11:47.240Z,100768.60
2023-03-29T05:14:20.819Z,100772.20
2023-03-29T05:16:53.976Z,100764.80
2023-03-29T05:19:28.096Z,100764.00
2023-03-29T05:22:01.133Z,100761.40
2023-03-29T05:24:34.337Z,100762.40
2023-03-29T05:27:13.194Z,100759.60
2023-03-29T05:29:46.702Z,100762.60
2023-03-29T05:32:40.310Z,100765.60
2023-03-29T05:35:14.337Z,100766.60
2023-03-29T05:37:48.344Z,100760.00
2023-03-29T05:40:22.296Z,100760.00
2023-03-29T05:43:15.469Z,100758.00
2023-03-29T05:45:48.868Z,100753.20
2023-03-29T05:48:22.425Z,100750.80
2023-03-29T05:50:58.030Z,100753.40
2023-03-29T05:53:32.431Z,100751.60
2023-03-29T05:56:07.203Z,100755.80
2023-03-29T05:58:40.348Z,100749.20
2023-03-29T06:01:18.140Z,100745.60
2023-03-29T06:04:03.833Z,100748.20
2023-03-29T06:06:45.446Z,100746.60
2023-03-29T06:09:19.276Z,100737.20
2023-03-29T06:12:07.276Z,100736.80
2023-03-29T06:14:51.967Z,100738.80
2023-03-29T06:17:34.780Z,100735.40
2023-03-29T06:20:11.246Z,100734.00
2023-03-29T06:22:46.971Z,100737.80
2023-03-29T06:25:20.593Z,100729.00
2023-03-29T06:27:54.733Z,100726.60
2023-03-29T06:30:28.016Z,100726.40
2023-03-29T06:33:03.220Z,100727.40
2023-03-29T06:36:01.975Z,100726.40
2023-03-29T06:38:35.550Z,100719.40
2023-03-29T06:41:38.567Z,100717.40
2023-03-29T06:44:11.734Z,100716.00
2023-03-29T06:46:55.889Z,100715.20
2023-03-29T06:49:29.705Z,100707.80
2023-03-29T06:52:11.248Z,100709.60
2023-03-29T06:54:44.423Z,100707.80
2023-03-29T06:57:17.895Z,100706.20
2023-03-29T06:59:51.108Z,100704.40
2023-03-29T07:02:38.798Z,100705.20
2023-03-29T07:05:18.353Z,100695.20
2023-03-29T07:07:56.699Z,100701.40
2023-03-29T07:10:43.096Z,100699.40
2023-03-29T07:13:46.455Z,100698.20
2023-03-29T07:16:22.149Z,100694.40
2023-03-29T07:19:27.462Z,100696.60
2023-03-29T07:22:01.189Z,100693.60
2023-03-29T07:24:45.148Z,100688.80
2023-03-29T07:27:18.293Z,100689.20
2023-03-29T07:29:54.295Z,100684.60
2023-03-29T07:32:28.337Z,100695.40
2023-03-29T07:35:20.011Z,100698.20
2023-03-29T07:37:55.087Z,100697.80
2023-03-29T07:40:28.581Z,100699.80
2023-03-29T07:43:09.169Z,100700.00
2023-03-29T07:45:43.149Z,100701.00
2023-03-29T07:48:17.998Z,100699.80
2023-03-29T07:50:54.995Z,100700.20
2023-03-29T07:53:32.490Z,100696.80
2023-03-29T07:56:09.148Z,100697.20
2023-03-29T07:58:55.520Z,100695.80
2023-03-29T08:01:29.445Z,100690.60
2023-03-29T08:04:25.000Z,100686.60
2023-03-29T08:07:18.814Z,100688.80
2023-03-29T08:10:16.927Z,100684.00
2023-03-29T08:13:06.212Z,100685.60
2023-03-29T08:15:51.743Z,100684.80
2023-03-29T08:18:36.124Z,100678.20
2023-03-29T08:21:10.329Z,100677.20
2023-03-29T08:23:43.841Z,100672.00
2023-03-29T08:26:21.615Z,100672.80
2023-03-29T08:28:55.616Z,100673.20
2023-03-29T08:31:29.702Z,100670.60
2023-03-29T08:34:03.267Z,100665.80
2023-03-29T08:36:50.889Z,100667.80
2023-03-29T08:39:31.828Z,100661.40
2023-03-29T08:43:06.279Z,100661.60
2023-03-29T08:46:08.140Z,100658.60
2023-03-29T08:48:45.602Z,100656.40
2023-03-29T08:51:27.401Z,100651.80
2023-03-29T08:54:05.152Z,100652.80
2023-03-29T08:56:51.504Z,100647.80
2023-03-29T08:59:34.928Z,100642.60
2023-03-29T09:02:19.052Z,100643.40
2023-03-29T09:05:00.212Z,100639.80
2023-03-29T09:07:43.701Z,100644.40
2023-03-29T09:10:19.980Z,100641.80
2023-03-29T09:13:19.685Z,100643.20
2023-03-29T09:15:58.057Z,100645.60
2023-03-29T09:18:50.811Z,100646.20
2023-03-29T09:21:32.522Z,100638.00
2023-03-29T09:24:47.553Z,100634.20
2023-03-29T09:27:31.124Z,100637.60
2023-03-29T09:30:26.293Z,100631.60
2023-03-29T09:33:13.973Z,100639.00
2023-03-29T09:36:15.306Z,100630.80
2023-03-29T09:38:54.364Z,100628.00
2023-03-29T09:41:33.953Z,100624.60
2023-03-29T09:44:23.962Z,100619.80
2023-03-29T09:47:08.793Z,100615.00
2023-03-29T09:49:48.873Z,100609.40
2023-03-29T09:52:22.406Z,100610.60
2023-03-29T09:55:06.096Z,100606.00
2023-03-29T09:58:08.860Z,100611.60
2023-03-29T10:00:43.145Z,100609.80
2023-03-29T10:03:24.027Z,100600.80
2023-03-29T10:06:06.226Z,100608.40
2023-03-29T10:08:47.430Z,100602.20
2023-03-29T10:11:32.014Z,100594.20
2023-03-29T10:14:13.683Z,100589.20
2023-03-29T10:16:48.123Z,100585.00
2023-03-29T10:19:28.606Z,100585.20
2023-03-29T10:22:06.753Z,100588.20
2023-03-29T10:24:40.062Z,100579.20
2023-03-29T10:27:15.354Z,100576.60
2023-03-29T10:29:48.552Z,100577.60
2023-03-29T10:32:31.440Z,100582.40
2023-03-29T10:35:13.781Z,100578.60
2023-03-29T10:37:51.202Z,100564.00
2023-03-29T10:40:30.894Z,100564.20
2023-03-29T10:43:22.707Z,100564.00
2023-03-29T10:45:58.219Z,100562.00
2023-03-29T10:48:36.214Z,100556.20
2023-03-29T10:51:09.992Z,100557.40
2023-03-29T10:53:43.208Z,100552.20
2023-03-29T10:56:42.848Z,100544.00
2023-03-29T10:59:28.769Z,100546.20
2023-03-29T11:02:41.971Z,100543.00
2023-03-29T11:05:31.106Z,100536.60
2023-03-29T11:08:29.759Z,100537.00
2023-03-29T11:11:17.586Z,100534.80
2023-03-29T11:14:01.031Z,100533.40
2023-03-29T11:16:43.351Z,100534.40
2023-03-29T11:19:40.262Z,100534.80
2023-03-29T11:22:20.948Z,100521.80
2023-03-29T11:25:21.015Z,100526.80
2023-03-29T11:28:04.905Z,100516.60
2023-03-29T11:30:44.460Z,100514.60
2023-03-29T11:33:34.758Z,100517.80
2023-03-29T11:36:16.842Z,100509.60
2023-03-29T11:39:04.442Z,100507.40
2023-03-29T11:41:41.937Z,100500.60
2023-03-29T11:44:20.533Z,100494.80
2023-03-29T11:47:00.714Z,100487.00
2023-03-29T11:49:35.424Z,100483.40
2023-03-29T11:52:14.396Z,100483.20
2023-03-29T11:54:53.987Z,100478.60
2023-03-29T11:57:31.182Z,100470.00
2023-03-29T12:00:12.554Z,100468.80
2023-03-29T12:02:51.294Z,100469.20
2023-03-29T12:05:29.498Z,100458.40
2023-03-29T12:08:08.528Z,100455.00
2023-03-29T12:10:46.597Z,100452.60
2023-03-29T12:13:28.254Z,100448.20
2023-03-29T12:16:08.697Z,100448.20
2023-03-29T12:18:46.458Z,100448.60
2023-03-29T12:21:23.330Z,100444.40
2023-03-29T12:23:58.835Z,100446.40
2023-03-29T12:27:07.509Z,100441.80
2023-03-29T12:30:21.805Z,100439.40
2023-03-29T12:33:10.293Z,100435.80
2023-03-29T12:36:26.530Z,100432.20
2023-03-29T12:39:24.331Z,100429.40
2023-03-29T12:42:23.677Z,100424.20
2023-03-29T12:45:22.486Z,100420.60
2023-03-29T12:47:56.607Z,100427.60
2023-03-29T12:50:36.806Z,100410.40
2023-03-29T12:53:22.713Z,100414.60
2023-03-29T12:56:11.798Z,100404.20
2023-03-29T12:59:06.775Z,100408.40
2023-03-29T13:01:42.077Z,100418.20
2023-03-29T13:04:24.092Z,100405.00
2023-03-29T13:07:04.670Z,100402.20
2023-03-29T13:09:51.671Z,100408.60
2023-03-29T13:12:33.548Z,100400.00
2023-03-29T13:15:23.737Z,100410.20
2023-03-29T13:18:11.653Z,100391.20
2023-03-29T13:20:55.982Z,100397.80
2023-03-29T13:23:42.356Z,100389.60
2023-03-29T13:26:35.769Z,100385.80
2023-03-29T13:29:35.996Z,100390.80
2023-03-29T13:32:28.050Z,100386.40
2023-03-29T13:35:07.374Z,100387.00
2023-03-29T13:37:53.370Z,100385.80
2023-03-29T13:40:59.084Z,100378.20
2023-03-29T13:43:53.625Z,100384.40
2023-03-29T13:46:41.018Z,100386.40
2023-03-29T13:49:25.229Z,100377.60
2023-03-29T13:52:16.862Z,100389.60
2023-03-29T13:54:57.632Z,100384.40
2023-03-29T13:57:40.260Z,100375.00
2023-03-29T14:00:22.084Z,100373.40
2023-03-29T14:02:59.539Z,100367.20
2023-03-29T14:05:36.137Z,100362.40
2023-03-29T14:08:17.946Z,100361.80
2023-03-29T14:10:51.478Z,100368.60
2023-03-29T14:13:28.391Z,100366.40
2023-03-29T14:16:04.719Z,100363.80
2023-03-29T14:18:41.504Z,100372.00
2023-03-29T14:21:17.085Z,100368.20
2023-03-29T14:23:58.936Z,100367.40
2023-03-29T14:26:36.104Z,100370.40
2023-03-29T14:29:12.179Z,100372.00
2023-03-29T14:31:47.450Z,100367.20
2023-03-29T14:34:21.930Z,100373.20
2023-03-29T14:36:55.335Z,100373.40
2023-03-29T14:39:29.335Z,100368.20
2023-03-29T14:42:02.835Z,100362.40
2023-03-29T14:44:37.582Z,100370.20
2023-03-29T14:47:16.851Z,100364.80
2023-03-29T14:49:50.622Z,100353.80
2023-03-29T14:52:24.406Z,100349.80
2023-03-29T14:55:00.185Z,100349.00
2023-03-29T14:57:39.668Z,100347.40
2023-03-29T15:00:35.905Z,100341.80
2023-03-29T15:03:18.141Z,100337.20
2023-03-29T15:05:56.347Z,100341.00
2023-03-29T15:08:35.871Z,100343.20
2023-03-29T15:11:18.875Z,100332.80
2023-03-29T15:13:55.335Z,100324.40
2023-03-29T15:16:31.281Z,100322.60
2023-03-29T15:19:05.034Z,100321.80
2023-03-29T15:21:39.938Z,100317.00
2023-03-29T15:24:29.734Z,100312.00
2023-03-29T15:27:13.044Z,100316.40
2023-03-29T15:29:48.591Z,100314.40
2023-03-29T15:32:34.928Z,100312.20
2023-03-29T15:35:22.416Z,100307.40
2023-03-29T15:37:56.684Z,100312.40
2023-03-29T15:40:30.472Z,100315.40
2023-03-29T15:43:03.972Z,100317.40
2023-03-29T15:45:37.438Z,100318.00
2023-03-29T15:48:21.971Z,100317.00
2023-03-29T15:50:55.537Z,100327.00
2023-03-29T15:53:29.047Z,100332.40
2023-03-29T15:56:07.489Z,100328.60
2023-03-29T15:58:41.024Z,100336.00
2023-03-29T16:01:34.718Z,100329.80
2023-03-29T16:04:12.213Z,100337.80
2023-03-29T16:06:47.021Z,100329.40
2023-03-29T16:09:20.973Z,100333.00
2023-03-29T16:11:54.466Z,100333.00
2023-03-29T16:14:31.548Z,100346.40
2023-03-29T16:17:06.298Z,100339.60
2023-03-29T16:19:39.791Z,100339.40
2023-03-29T16:22:13.106Z,100347.40
2023-03-29T16:24:46.271Z,100342.60
2023-03-29T16:27:19.486Z,100332.80
2023-03-29T16:29:52.603Z,100338.40
2023-03-29T16:32:26.535Z,100334.20
2023-03-29T16:34:59.807Z,100348.80
2023-03-29T16:37:33.673Z,100351.20
2023-03-29T16:40:08.343Z,100348.40
2023-03-29T16:42:41.838Z,100345.60
2023-03-29T16:45:17.998Z,100346.00
2023-03-29T16:50:25.033Z,100326.20
2023-03-29T16:52:58.210Z,100326.00
2023-03-29T16:55:31.374Z,100331.40
2023-03-29T16:58:05.118Z,100337.80
2023-03-29T17:00:38.333Z,100328.40
2023-03-29T17:03:11.565Z,100321.80
2023-03-29T17:05:50.470Z,100325.60
2023-03-29T17:08:24.280Z,100328.40
2023-03-29T17:10:58.196Z,100331.40
2023-03-29T17:13:32.634Z,100332.40
2023-03-29T17:16:06.613Z,100330.00
2023-03-29T17:18:40.091Z,100330.40
2023-03-29T17:21:13.581Z,100338.40
2023-03-29T17:23:46.735Z,100333.40
2023-03-29T17:26:19.873Z,100330.60
2023-03-29T17:28:53.151Z,100322.40
2023-03-29T17:31:26.372Z,100317.80
2023-03-29T17:33:59.682Z,100320.20
2023-03-29T17:36:34.023Z,100316.20
2023-03-29T17:39:07.161Z,100314.40
2023-03-29T17:41:40.244Z,100308.80
2023-03-29T17:44:13.506Z,100314.40
2023-03-29T17:46:46.899Z,100320.00
2023-03-29T17:49:19.942Z,100328.80
2023-03-29T17:51:53.502Z,100313.60
2023-03-29T17:54:27.501Z,100309.80
2023-03-29T17:57:00.743Z,100302.60
2023-03-29T17:59:33.844Z,100310.00
2023-03-29T18:02:07.188Z,100311.40
2023-03-29T18:04:40.534Z,100316.20
2023-03-29T18:07:13.760Z,100324.40
2023-03-29T18:09:47.080Z,100324.80
2023-03-29T18:12:20.163Z,100329.60
2023-03-29T18:14:53.284Z,100324.40
2023-03-29T18:17:27.775Z,100322.60
2023-03-29T18:20:01.795Z,100323.60
2023-03-29T18:22:36.505Z,100324.60
2023-03-29T18:25:11.729Z,100327.00
2023-03-29T18:27:45.118Z,100319.00
2023-03-29T18:30:19.040Z,100329.00
2023-03-29T18:32:52.392Z,100326.80
2023-03-29T18:35:25.917Z,100330.60
2023-03-29T18:37:59.487Z,100329.20
2023-03-29T18:40:32.681Z,100329.20
2023-03-29T18:43:06.055Z,100325.20
2023-03-29T18:45:39.281Z,100318.00
2023-03-29T18:48:12.577Z,100319.80
2023-03-29T18:50:47.537Z,100321.40
2023-03-29T18:53:21.393Z,100324.60
2023-03-29T18:55:54.636Z,100331.00
2023-03-29T18:58:28.228Z,100328.20
2023-03-29T19:01:06.390Z,100323.60
2023-03-29T19:03:39.919Z,100320.20
2023-03-29T19:06:14.438Z,100318.60
2023-03-29T19:08:47.705Z,100318.00
2023-03-29T19:11:21.479Z,100315.60
2023-03-29T19:13:54.773Z,100316.00
2023-03-29T19:16:28.042Z,100309.80
2023-03-29T19:19:01.735Z,100313.20
2023-03-29T19:21:35.588Z,100311.00
2023-03-29T19:24:10.104Z,100306.60
2023-03-29T19:26:43.809Z,100308.20
2023-03-29T19:29:17.054Z,100305.40
2023-03-29T19:31:52.028Z,100303.00
2023-03-29T19:34:25.497Z,100305.20
2023-03-29T19:37:00.465Z,100304.40
2023-03-29T19:39:33.735Z,100300.20
2023-03-29T19:42:07.364Z,100306.40
2023-03-29T19:44:40.859Z,100302.60
2023-03-29T19:47:14.148Z,100298.60
2023-03-29T19:49:47.555Z,100299.20
2023-03-29T19:52:23.862Z,100295.40
2023-03-29T19:54:57.398Z,100295.00
2023-03-29T19:57:30.957Z,100290.00
2023-03-29T20:00:08.098Z,100284.60
2023-03-29T20:02:45.493Z,100284.80
2023-03-29T20:05:18.991Z,100286.80
2023-03-29T20:07:52.134Z,100281.60
2023-03-29T20:10:25.533Z,100281.00
2023-03-29T20:12:58.809Z,100283.40
2023-03-29T20:15:32.165Z,100281.20
2023-03-29T20:18:06.186Z,100274.80
2023-03-29T20:20:39.409Z,100272.80
2023-03-29T20:23:12.655Z,100278.40
2023-03-29T20:25:45.938Z,100274.40
2023-03-29T20:28:19.929Z,100275.40
2023-03-29T20:30:53.793Z,100274.40
2023-03-29T20:33:27.010Z,100275.80
2023-03-29T20:36:00.240Z,100271.00
2023-03-29T20:38:33.556Z,100266.40
2023-03-29T20:41:09.144Z,100254.60
2023-03-29T20:43:42.528Z,100258.60
2023-03-29T20:46:18.567Z,100257.40
2023-03-29T20:48:54.321Z,100261.00
2023-03-29T20:51:30.445Z,100258.60
2023-03-29T20:54:06.120Z,100263.00
2023-03-29T20:56:42.781Z,100261.40
2023-03-29T20:59:16.154Z,100268.20
2023-03-29T21:01:50.558Z,100262.20
2023-03-29T21:04:24.964Z,100257.20
2023-03-29T21:07:00.964Z,100255.60
2023-03-29T21:09:36.573Z,100251.20
2023-03-29T21:12:10.491Z,100251.40
2023-03-29T21:14:45.203Z,100251.20
2023-03-29T21:17:18.465Z,100243.40
2023-03-29T21:19:52.157Z,100235.20
2023-03-29T21:22:25.524Z,100233.20
2023-03-29T21:24:58.752Z,100228.60
2023-03-29T21:27:31.882Z,100227.20
2023-03-29T21:30:05.777Z,100225.60
2023-03-29T21:32:39.331Z,100225.00
2023-03-29T21:35:14.486Z,100221.00
2023-03-29T21:37:48.405Z,100218.00
2023-03-29T21:40:21.720Z,100216.60
2023-03-29T21:42:55.124Z,100208.80
2023-03-29T21:45:28.620Z,100210.60
2023-03-29T21:48:01.789Z,100209.40
2023-03-29T21:50:35.013Z,100207.40
2023-03-29T21:53:08.165Z,100205.00
2023-03-29T21:55:41.305Z,100197.00
2023-03-29T21:58:14.490Z,100191.60
2023-03-29T22:00:48.604Z,100193.60
2023-03-29T22:03:21.984Z,100190.60
2023-03-29T22:06:03.780Z,100198.80
2023-03-29T22:08:39.060Z,100202.80
2023-03-29T22:11:14.768Z,100198.80
2023-03-29T22:13:49.162Z,100199.40
2023-03-29T22:16:25.882Z,100198.20
2023-03-29T22:18:59.646Z,100188.00
2023-03-29T22:21:33.347Z,100181.60
2023-03-29T22:24:07.585Z,100175.80
2023-03-29T22:26:41.207Z,100175.20
2023-03-29T22:29:14.255Z,100175.60
2023-03-29T22:31:47.335Z,100169.60
2023-03-29T22:34:20.905Z,100166.40
2023-03-29T22:36:54.479Z,100165.00
2023-03-29T22:39:27.822Z,100155.40
2023-03-29T22:42:01.052Z,100159.20
2023-03-29T22:44:35.079Z,100158.00
2023-03-29T22:47:08.497Z,100150.20
2023-03-29T22:49:41.593Z,100150.40
2023-03-29T22:52:14.748Z,100149.20
2023-03-29T22:54:47.764Z,100148.40
2023-03-29T22:57:20.966Z,100147.40
2023-03-29T22:59:54.391Z,100148.40
2023-03-29T23:02:27.592Z,100151.00
2023-03-29T23:05:00.842Z,100154.20
2023-03-29T23:07:36.675Z,100151.20
2023-03-29T23:10:12.872Z,100147.00
2023-03-29T23:12:45.925Z,100143.60
2023-03-29T23:15:22.950Z,100145.00
2023-03-29T23:17:56.564Z,100142.00
2023-03-29T23:20:30.557Z,100139.60
2023-03-29T23:23:04.350Z,100142.20
2023-03-29T23:25:37.996Z,100139.20
2023-03-29T23:28:11.230Z,100138.00
2023-03-29T23:30:44.537Z,100137.40
2023-03-29T23:33:17.640Z,100133.00
2023-03-29T23:35:50.720Z,100132.00
2023-03-29T23:38:24.375Z,100127.00
2023-03-29T23:41:03.978Z,100125.00
2023-03-29T23:43:40.730Z,100123.80
2023-03-29T23:46:16.313Z,100120.80
2023-03-29T23:48:53.680Z,100124.80
2023-03-29T23:51:28.502Z,100121.60
2023-03-29T23:54:02.420Z,100116.40
2023-03-29T23:56:35.600Z,100118.20
2023-03-29T23:59:09.016Z,100116.60
